Time;durP1;ratioP1;P1;durP2;ratioP2;P2;SDS_P1;SDS_P2;PMS_P1;PMS_P2;Temp;Humidity;BMP_temperature;BMP_pressure;BME280_temperature;BME280_humidity;BME280_pressure;Samples;Min_cycle;Max_cycle;Signal;HPM_P1;HPM_P2
2024/03/31 00:01:33;;;;;;;3.92;3.53;;;9.60;99.90;;;;;;5000069;28;20041;-37
2024/03/31 00:03:59;;;;;;;4.07;3.67;;;9.70;99.90;;;;;;5000148;28;20038;-38
2024/03/31 00:06:25;;;;;;;3.65;3.35;;;9.70;99.90;;;;;;5001356;28;20131;-39
2024/03/31 00:08:50;;;;;;;3.38;3.08;;;9.80;99.90;;;;;;5000765;28;20084;-37
2024/03/31 00:11:22;;;;;;;3.63;3.33;;;9.90;99.90;;;;;;4999863;28;20036;-37
2024/03/31 00:13:50;;;;;;;3.20;2.90;;;9.90;99.90;;;;;;5000713;28;20025;-38
2024/03/31 00:16:15;;;;;;;3.50;3.20;;;10.00;99.90;;;;;;4999972;28;20032;-38
2024/03/31 00:18:41;;;;;;;4.57;4.03;;;10.00;99.90;;;;;;5000318;28;20030;-38
2024/03/31 00:21:07;;;;;;;4.85;4.45;;;10.10;99.90;;;;;;5000265;28;20057;-36
2024/03/31 00:23:32;;;;;;;4.55;4.15;;;10.10;99.90;;;;;;5000127;28;20148;-38
2024/03/31 00:25:58;;;;;;;4.95;4.45;;;10.10;99.90;;;;;;5000752;28;20054;-36
2024/03/31 00:28:25;;;;;;;6.20;5.60;;;10.10;99.90;;;;;;5000004;28;20117;-37
2024/03/31 00:30:55;;;;;;;6.38;5.70;;;10.10;99.90;;;;;;4980365;28;20059;-36
2024/03/31 00:33:20;;;;;;;8.27;7.18;;;10.10;99.90;;;;;;4999255;28;20053;-38
2024/03/31 00:35:57;;;;;;;10.57;8.95;;;10.10;99.90;;;;;;5000607;28;20118;-38
2024/03/31 00:38:24;;;;;;;9.57;7.88;;;10.10;99.90;;;;;;5000126;28;20037;-39
2024/03/31 00:40:52;;;;;;;10.10;8.98;;;10.10;99.90;;;;;;5001432;28;20034;-38
2024/03/31 00:43:18;;;;;;;10.32;8.85;;;10.20;99.90;;;;;;5000773;28;20041;-36
2024/03/31 00:45:43;;;;;;;12.68;10.63;;;10.10;99.90;;;;;;5000320;28;20022;-38
2024/03/31 00:48:09;;;;;;;14.27;11.85;;;10.10;99.90;;;;;;5000250;28;20026;-37
2024/03/31 00:50:35;;;;;;;13.05;10.80;;;10.10;99.90;;;;;;5000660;28;20033;-39
2024/03/31 00:53:01;;;;;;;11.63;10.15;;;10.10;99.90;;;;;;4999702;28;20029;-36
2024/03/31 00:55:27;;;;;;;13.32;10.23;;;10.10;99.90;;;;;;5000653;28;20022;-38
2024/03/31 00:57:56;;;;;;;14.70;11.40;;;10.10;99.90;;;;;;4999712;28;20493;-37
2024/03/31 01:00:22;;;;;;;13.77;11.30;;;10.10;99.90;;;;;;4992511;28;20079;-37
2024/03/31 01:02:47;;;;;;;13.77;11.98;;;10.10;99.90;;;;;;5000669;28;20289;-37
2024/03/31 01:05:13;;;;;;;13.18;10.50;;;10.00;99.90;;;;;;4999730;28;20057;-37
2024/03/31 01:07:39;;;;;;;12.25;10.50;;;10.00;99.90;;;;;;5000536;28;20034;-38
2024/03/31 01:10:06;;;;;;;10.95;9.48;;;10.00;99.90;;;;;;4999489;28;20517;-35
2024/03/31 01:12:32;;;;;;;11.88;9.77;;;10.00;99.90;;;;;;4999984;28;20036;-36
2024/03/31 01:14:58;;;;;;;10.90;8.52;;;10.00;99.90;;;;;;5000180;28;20038;-36
2024/03/31 01:17:26;;;;;;;9.57;8.57;;;10.00;99.90;;;;;;5002347;28;20727;-36
2024/03/31 01:19:52;;;;;;;11.27;9.13;;;10.00;99.90;;;;;;5002634;28;20033;-38
2024/03/31 01:22:19;;;;;;;13.50;11.00;;;10.00;99.90;;;;;;5003261;28;20026;-39
2024/03/31 01:24:45;;;;;;;13.43;11.50;;;10.00;99.90;;;;;;5002698;28;20034;-39
2024/03/31 01:27:10;;;;;;;14.25;11.32;;;10.00;99.90;;;;;;4996122;28;20473;-33
2024/03/31 01:29:38;;;;;;;20.88;17.13;;;10.00;99.90;;;;;;5003513;28;20061;-38
2024/03/31 01:32:06;;;;;;;15.80;13.00;;;10.00;99.90;;;;;;5003119;28;20500;-34
2024/03/31 01:34:33;;;;;;;15.10;12.38;;;10.00;99.90;;;;;;5001791;28;20037;-38
2024/03/31 01:37:01;;;;;;;14.82;11.80;;;10.00;99.90;;;;;;5003637;28;20029;-39
2024/03/31 01:39:26;;;;;;;13.45;10.73;;;10.10;99.90;;;;;;5001973;28;20048;-37
2024/03/31 01:41:52;;;;;;;13.32;10.57;;;10.10;99.90;;;;;;5002061;28;20030;-38
2024/03/31 01:44:17;;;;;;;12.00;9.57;;;10.10;99.90;;;;;;5003690;28;20029;-36
2024/03/31 01:46:43;;;;;;;10.88;8.73;;;10.00;99.90;;;;;;5003127;28;20040;-38
2024/03/31 01:49:08;;;;;;;9.73;8.25;;;10.10;99.90;;;;;;5001163;28;20041;-36
2024/03/31 01:51:34;;;;;;;10.93;9.07;;;10.10;99.90;;;;;;5002190;28;20084;-37
2024/03/31 01:54:03;;;;;;;9.20;7.53;;;10.10;99.90;;;;;;5002563;28;20034;-38
2024/03/31 01:56:28;;;;;;;9.45;7.68;;;10.00;99.90;;;;;;4999352;28;20024;-35
2024/03/31 01:58:54;;;;;;;8.23;6.75;;;10.10;99.90;;;;;;5002641;28;20053;-35
2024/03/31 02:01:20;;;;;;;6.85;6.10;;;10.00;99.90;;;;;;5002886;28;20028;-37
2024/03/31 02:03:48;;;;;;;7.70;6.68;;;10.10;99.90;;;;;;5002809;28;20505;-37
2024/03/31 02:06:16;;;;;;;8.10;7.15;;;10.10;99.90;;;;;;5002974;28;20030;-34
2024/03/31 02:08:42;;;;;;;8.93;7.15;;;10.10;99.90;;;;;;5003014;28;20030;-42
2024/03/31 02:11:08;;;;;;;8.85;7.35;;;10.00;99.90;;;;;;5001513;28;20704;-37
2024/03/31 02:13:48;;;;;;;7.72;6.90;;;10.00;99.90;;;;;;5002503;28;20489;-38
2024/03/31 02:16:20;;;;;;;8.35;6.47;;;10.00;99.90;;;;;;5002042;28;20036;-39
2024/03/31 02:18:46;;;;;;;7.55;6.32;;;10.00;99.90;;;;;;5003634;28;20088;-38
2024/03/31 02:21:12;;;;;;;6.20;5.57;;;10.00;99.90;;;;;;5001519;28;20034;-38
2024/03/31 02:23:37;;;;;;;9.13;6.85;;;10.00;99.90;;;;;;4999961;28;20114;-36
2024/03/31 02:26:03;;;;;;;6.82;5.82;;;10.00;99.90;;;;;;5002683;28;20029;-36
2024/03/31 02:28:31;;;;;;;7.30;5.97;;;10.00;99.90;;;;;;5002070;28;20117;-38
2024/03/31 02:30:56;;;;;;;6.50;5.80;;;10.00;99.90;;;;;;5001474;28;20100;-39
2024/03/31 02:33:22;;;;;;;7.07;5.70;;;9.90;99.90;;;;;;5002419;28;20821;-39
2024/03/31 02:35:47;;;;;;;6.13;5.15;;;9.90;99.90;;;;;;5002491;28;20776;-37
2024/03/31 02:38:13;;;;;;;5.43;4.85;;;9.90;99.90;;;;;;5000659;28;20619;-36
2024/03/31 02:40:38;;;;;;;6.10;5.35;;;9.90;99.90;;;;;;5001077;28;20085;-37
2024/03/31 02:43:05;;;;;;;5.57;4.60;;;9.90;99.90;;;;;;5002093;28;20029;-37
2024/03/31 02:45:30;;;;;;;6.95;5.50;;;9.90;99.90;;;;;;5001762;28;20489;-38
2024/03/31 02:47:56;;;;;;;6.97;5.78;;;9.90;99.90;;;;;;5001361;28;20026;-35
2024/03/31 02:50:21;;;;;;;7.55;6.32;;;9.90;99.90;;;;;;5000790;28;20033;-36
2024/03/31 02:52:47;;;;;;;6.25;5.38;;;9.90;99.90;;;;;;5000687;28;20026;-36
2024/03/31 02:55:12;;;;;;;6.00;5.32;;;9.80;99.90;;;;;;5002022;28;20030;-37
2024/03/31 02:57:41;;;;;;;7.03;6.30;;;9.90;99.90;;;;;;5001811;28;20026;-37
2024/03/31 03:00:07;;;;;;;6.05;5.43;;;9.90;99.90;;;;;;5001356;28;20145;-38
2024/03/31 03:02:32;;;;;;;6.78;5.82;;;9.80;99.90;;;;;;5002269;28;20029;-40
2024/03/31 03:04:58;;;;;;;6.72;5.38;;;9.90;99.90;;;;;;5001555;28;20061;-37
2024/03/31 03:07:23;;;;;;;6.65;5.53;;;9.80;99.90;;;;;;5001439;28;20044;-34
2024/03/31 03:09:49;;;;;;;6.13;5.25;;;9.80;99.90;;;;;;5000653;28;20137;-38
2024/03/31 03:12:15;;;;;;;7.07;5.63;;;9.80;99.90;;;;;;4999068;28;20034;-37
2024/03/31 03:14:41;;;;;;;5.63;5.07;;;9.90;99.90;;;;;;5000467;28;20022;-38
2024/03/31 03:17:07;;;;;;;5.55;5.00;;;9.80;99.90;;;;;;4997057;28;20100;-35
2024/03/31 03:19:33;;;;;;;5.95;4.90;;;9.90;99.90;;;;;;4998455;28;20699;-35
2024/03/31 03:21:59;;;;;;;4.97;4.30;;;9.80;99.90;;;;;;4999679;28;20026;-37
2024/03/31 03:24:24;;;;;;;4.75;4.22;;;9.80;99.90;;;;;;5000476;28;20069;-37
2024/03/31 03:26:50;;;;;;;5.15;4.28;;;9.80;99.90;;;;;;5000743;28;20818;-37
2024/03/31 03:29:15;;;;;;;4.68;4.20;;;9.80;99.90;;;;;;5001146;28;20042;-37
2024/03/31 03:31:41;;;;;;;4.40;4.00;;;9.80;99.90;;;;;;5001844;28;20030;-41
2024/03/31 03:34:09;;;;;;;4.30;3.85;;;9.80;99.90;;;;;;5000354;28;20566;-38
2024/03/31 03:36:35;;;;;;;5.00;4.00;;;9.70;99.90;;;;;;5001048;28;20896;-35
2024/03/31 03:39:00;;;;;;;4.85;4.35;;;9.70;99.90;;;;;;5000077;28;20033;-36
2024/03/31 03:41:26;;;;;;;5.10;4.20;;;9.70;99.90;;;;;;5000256;28;20057;-37
2024/03/31 03:43:54;;;;;;;4.55;4.07;;;9.70;99.90;;;;;;5000729;28;20469;-37
2024/03/31 03:46:20;;;;;;;4.38;3.97;;;9.60;99.90;;;;;;5000866;28;20034;-37
2024/03/31 03:48:45;;;;;;;4.43;4.03;;;9.60;99.90;;;;;;5000284;28;20030;-38
2024/03/31 03:51:11;;;;;;;4.55;3.83;;;9.60;99.90;;;;;;4999593;28;20026;-38
2024/03/31 03:53:36;;;;;;;4.80;3.75;;;9.60;99.90;;;;;;5001323;28;20026;-37
2024/03/31 03:56:02;;;;;;;4.88;4.38;;;9.60;99.90;;;;;;5000899;28;20030;-38
2024/03/31 03:58:28;;;;;;;5.63;4.45;;;9.50;99.90;;;;;;5001903;28;20044;-39
2024/03/31 04:00:53;;;;;;;4.65;4.25;;;9.50;99.90;;;;;;5001671;28;20014;-38
2024/03/31 04:03:19;;;;;;;4.43;4.03;;;9.50;99.90;;;;;;5000650;28;20509;-39
2024/03/31 04:05:57;;;;;;;4.57;4.13;;;9.50;99.90;;;;;;4999540;28;20161;-38
2024/03/31 04:08:23;;;;;;;6.53;4.50;;;9.50;99.90;;;;;;5000104;28;20042;-35
2024/03/31 04:10:49;;;;;;;4.63;4.13;;;9.50;99.90;;;;;;5000247;28;20185;-35
2024/03/31 04:13:15;;;;;;;4.40;4.00;;;9.40;99.90;;;;;;5000841;28;20062;-38
2024/03/31 04:15:41;;;;;;;4.75;4.28;;;9.50;99.90;;;;;;4999410;28;20440;-35
2024/03/31 04:18:07;;;;;;;5.00;4.50;;;9.50;99.90;;;;;;5000949;28;20116;-38
2024/03/31 04:20:38;;;;;;;5.13;4.63;;;9.50;99.90;;;;;;5000660;28;20860;-38
2024/03/31 04:23:04;;;;;;;5.32;4.82;;;9.50;99.90;;;;;;4993781;28;20042;-37
2024/03/31 04:25:35;;;;;;;5.55;5.03;;;9.50;99.90;;;;;;5000986;28;20036;-35
2024/03/31 04:28:01;;;;;;;5.85;5.25;;;9.50;99.90;;;;;;5000148;28;20046;-37
2024/03/31 04:30:27;;;;;;;5.97;5.38;;;9.50;99.90;;;;;;5000089;28;20046;-33
2024/03/31 04:32:52;;;;;;;7.05;6.35;;;9.50;99.90;;;;;;5000548;28;20022;-38
2024/03/31 04:35:20;;;;;;;8.93;6.40;;;9.50;99.90;;;;;;5000684;28;20034;-37
2024/03/31 04:37:49;;;;;;;7.50;6.25;;;9.50;99.90;;;;;;4999533;28;20022;-39
2024/03/31 04:40:15;;;;;;;7.38;6.68;;;9.50;99.90;;;;;;5000528;28;20036;-38
2024/03/31 04:42:40;;;;;;;7.93;7.07;;;9.50;99.90;;;;;;5000572;28;20022;-37
2024/03/31 04:45:06;;;;;;;7.50;6.80;;;9.50;99.90;;;;;;5000035;28;20354;-37
2024/03/31 04:47:31;;;;;;;8.70;7.80;;;9.60;99.90;;;;;;5000655;28;20041;-32
2024/03/31 04:49:57;;;;;;;8.13;7.28;;;9.50;99.90;;;;;;4998685;28;20133;-37
2024/03/31 04:52:25;;;;;;;9.43;7.50;;;9.60;99.90;;;;;;5001786;28;20383;-36
2024/03/31 04:54:51;;;;;;;9.35;7.65;;;9.60;99.90;;;;;;5003386;28;20104;-38
2024/03/31 04:57:17;;;;;;;10.07;8.18;;;9.50;99.90;;;;;;5001610;28;20037;-37
2024/03/31 04:59:43;;;;;;;9.68;8.05;;;9.60;99.90;;;;;;5003391;28;20076;-35
2024/03/31 05:02:08;;;;;;;9.77;8.77;;;9.60;99.90;;;;;;5002753;28;20132;-35
2024/03/31 05:04:34;;;;;;;9.77;8.77;;;9.50;99.90;;;;;;5003143;28;20034;-35
2024/03/31 05:07:00;;;;;;;8.73;7.82;;;9.50;99.90;;;;;;5003433;28;20034;-38
2024/03/31 05:09:25;;;;;;;8.82;7.93;;;9.50;99.90;;;;;;5003065;28;20575;-37
2024/03/31 05:11:51;;;;;;;8.32;7.50;;;9.50;99.90;;;;;;5003205;28;20112;-36
2024/03/31 05:14:16;;;;;;;8.48;7.57;;;9.60;99.90;;;;;;5003233;28;20036;-35
2024/03/31 05:16:42;;;;;;;8.80;7.90;;;9.60;99.90;;;;;;5003750;28;20075;-38
2024/03/31 05:19:08;;;;;;;9.85;8.85;;;9.60;99.90;;;;;;5003083;28;20527;-38
2024/03/31 05:21:34;;;;;;;8.60;7.72;;;9.60;99.90;;;;;;5003938;28;20014;-38
2024/03/31 05:23:59;;;;;;;9.68;8.68;;;9.60;99.90;;;;;;5003726;28;20029;-38
2024/03/31 05:26:25;;;;;;;9.45;8.52;;;9.60;99.90;;;;;;5001691;28;20029;-39
2024/03/31 05:28:50;;;;;;;10.55;8.98;;;9.60;99.90;;;;;;5002789;28;20658;-39
2024/03/31 05:31:18;;;;;;;10.20;9.07;;;9.60;99.90;;;;;;5002075;28;20044;-38
2024/03/31 05:33:44;;;;;;;11.07;9.57;;;9.60;99.90;;;;;;5003105;28;20091;-36
2024/03/31 05:36:09;;;;;;;10.93;9.82;;;9.60;99.90;;;;;;5002151;28;20772;-37
2024/03/31 05:38:35;;;;;;;10.20;9.10;;;9.60;99.90;;;;;;5002682;28;20053;-35
2024/03/31 05:41:02;;;;;;;11.98;10.32;;;9.60;99.90;;;;;;5002492;28;20808;-36
2024/03/31 05:43:28;;;;;;;12.18;10.68;;;9.60;99.90;;;;;;5002893;28;20445;-33
2024/03/31 05:45:53;;;;;;;12.73;11.43;;;9.50;99.90;;;;;;5003211;28;20629;-35
2024/03/31 05:48:19;;;;;;;13.90;11.80;;;9.50;99.90;;;;;;5002022;28;20026;-38
2024/03/31 05:50:44;;;;;;;12.38;11.07;;;9.50;99.90;;;;;;5001909;28;20022;-38
2024/03/31 05:53:10;;;;;;;13.77;12.38;;;9.50;99.90;;;;;;5002496;28;20022;-39
2024/03/31 05:55:36;;;;;;;15.73;13.23;;;9.50;99.90;;;;;;5002392;28;20121;-36
2024/03/31 05:58:01;;;;;;;12.75;11.43;;;9.50;99.90;;;;;;5002542;28;20083;-37
2024/03/31 06:00:27;;;;;;;14.60;13.02;;;9.50;99.90;;;;;;5002406;28;20774;-33
2024/03/31 06:02:53;;;;;;;14.20;12.70;;;9.50;99.90;;;;;;5000946;28;20597;-35
2024/03/31 06:05:25;;;;;;;17.00;14.73;;;9.50;99.90;;;;;;5002756;28;20025;-38
2024/03/31 06:07:51;;;;;;;18.53;15.27;;;9.50;99.90;;;;;;5000335;28;20034;-36
2024/03/31 06:10:18;;;;;;;17.73;14.48;;;9.60;99.90;;;;;;5001102;28;20026;-37
2024/03/31 06:12:44;;;;;;;15.77;13.77;;;9.50;99.90;;;;;;5000121;28;20029;-34
2024/03/31 06:15:09;;;;;;;16.83;14.18;;;9.60;99.90;;;;;;5000905;28;20045;-37
2024/03/31 06:17:36;;;;;;;16.58;14.23;;;9.60;99.90;;;;;;5003028;28;20773;-38
2024/03/31 06:20:02;;;;;;;15.23;13.10;;;9.60;99.90;;;;;;5000491;28;20041;-36
2024/03/31 06:22:28;;;;;;;15.88;13.20;;;9.70;99.90;;;;;;5002712;28;20038;-38
2024/03/31 06:24:53;;;;;;;14.98;13.15;;;9.70;99.90;;;;;;5001823;28;20026;-38
2024/03/31 06:27:19;;;;;;;19.27;15.65;;;9.70;99.90;;;;;;5003054;28;20469;-38
2024/03/31 06:29:49;;;;;;;17.55;14.85;;;9.80;99.90;;;;;;5001681;28;20221;-37
2024/03/31 06:32:14;;;;;;;19.48;15.32;;;9.80;99.90;;;;;;5002787;28;20032;-36
2024/03/31 06:34:40;;;;;;;17.63;14.85;;;9.80;99.90;;;;;;5000827;28;20034;-37
2024/03/31 06:37:05;;;;;;;18.40;15.50;;;9.80;99.90;;;;;;5000185;28;20180;-38
2024/03/31 06:39:31;;;;;;;17.88;15.15;;;9.80;99.90;;;;;;5000150;28;20048;-34
2024/03/31 06:41:56;;;;;;;17.10;14.68;;;9.80;99.90;;;;;;5001545;28;20448;-37
2024/03/31 06:44:24;;;;;;;17.55;14.65;;;9.80;99.90;;;;;;4998705;28;20037;-37
2024/03/31 06:46:49;;;;;;;22.75;17.60;;;9.90;99.90;;;;;;4998774;28;20737;-38
2024/03/31 06:49:15;;;;;;;19.85;15.63;;;9.90;99.90;;;;;;4999246;28;20030;-33
2024/03/31 06:51:41;;;;;;;18.02;15.05;;;9.90;99.90;;;;;;4999753;28;20040;-31
2024/03/31 06:54:18;;;;;;;19.45;15.77;;;10.00;99.90;;;;;;5001474;28;20034;-38
2024/03/31 06:56:44;;;;;;;20.63;16.27;;;10.10;99.90;;;;;;5001709;28;20736;-37
2024/03/31 06:59:10;;;;;;;20.42;16.67;;;10.10;99.90;;;;;;4999890;28;20048;-37
2024/03/31 07:01:35;;;;;;;19.00;15.52;;;10.10;99.90;;;;;;5000765;28;20630;-37
2024/03/31 07:04:01;;;;;;;20.00;16.00;;;10.20;99.90;;;;;;5000452;28;20040;-38
2024/03/31 07:06:26;;;;;;;15.95;14.10;;;10.30;99.90;;;;;;5001379;28;20359;-36
2024/03/31 07:08:52;;;;;;;20.08;15.35;;;10.40;99.90;;;;;;5000634;28;20056;-37
2024/03/31 07:11:18;;;;;;;20.90;16.95;;;10.50;99.90;;;;;;4999364;28;20032;-37
2024/03/31 07:13:44;;;;;;;19.80;16.67;;;10.50;99.90;;;;;;4997851;28;20767;-37
2024/03/31 07:16:09;;;;;;;18.77;16.23;;;10.50;99.90;;;;;;4997401;28;20034;-34
2024/03/31 07:18:35;;;;;;;21.42;16.23;;;10.50;99.90;;;;;;5000869;28;20038;-35
2024/03/31 07:21:00;;;;;;;22.05;16.80;;;10.50;99.90;;;;;;4994168;28;20145;-32
2024/03/31 07:23:26;;;;;;;20.08;16.83;;;10.50;99.90;;;;;;5001052;28;20029;-36
2024/03/31 07:25:51;;;;;;;18.95;15.77;;;10.50;99.90;;;;;;4997294;28;20133;-35
2024/03/31 07:28:20;;;;;;;19.70;17.60;;;10.50;99.90;;;;;;4998268;28;20022;-35
2024/03/31 07:30:45;;;;;;;21.83;18.17;;;10.50;99.90;;;;;;4998661;28;20046;-35
2024/03/31 07:33:11;;;;;;;23.17;18.92;;;10.50;99.90;;;;;;4998270;28;20036;-36
2024/03/31 07:35:36;;;;;;;23.73;19.60;;;10.50;99.90;;;;;;4998847;28;20026;-39
2024/03/31 07:38:02;;;;;;;25.13;20.23;;;10.50;99.90;;;;;;4998882;28;20084;-38
2024/03/31 07:40:28;;;;;;;22.88;19.23;;;10.50;99.90;;;;;;4998308;28;20040;-35
2024/03/31 07:42:55;;;;;;;21.25;17.88;;;10.50;99.90;;;;;;4998820;28;20686;-33
2024/03/31 07:45:20;;;;;;;22.98;18.55;;;10.40;99.90;;;;;;4999653;28;20038;-37
2024/03/31 07:47:46;;;;;;;25.52;19.75;;;10.50;99.90;;;;;;4999944;28;20428;-34
2024/03/31 07:50:12;;;;;;;23.02;19.17;;;10.50;99.90;;;;;;5000923;28;20029;-35
2024/03/31 07:52:38;;;;;;;22.20;17.70;;;10.50;99.90;;;;;;5000689;28;20029;-32
2024/03/31 07:55:04;;;;;;;19.30;16.65;;;10.60;99.90;;;;;;4999509;28;20071;-38
2024/03/31 07:57:30;;;;;;;20.02;16.73;;;10.70;99.90;;;;;;5000758;28;20049;-35
2024/03/31 07:59:58;;;;;;;19.08;17.02;;;10.80;99.90;;;;;;5000089;28;20108;-35
2024/03/31 08:02:27;;;;;;;19.95;17.20;;;10.90;99.90;;;;;;4999966;28;20048;-34
2024/03/31 08:04:52;;;;;;;20.05;16.95;;;10.90;99.90;;;;;;5000352;28;20065;-38
2024/03/31 08:07:18;;;;;;;19.45;15.88;;;11.00;99.90;;;;;;4999557;28;20531;-33
2024/03/31 08:09:43;;;;;;;21.55;17.02;;;11.10;99.90;;;;;;5001031;28;20029;-35
2024/03/31 08:12:09;;;;;;;21.08;16.77;;;11.10;99.90;;;;;;5000296;28;20018;-32
2024/03/31 08:14:34;;;;;;;20.08;15.88;;;11.20;99.90;;;;;;5000471;28;20042;-33
2024/03/31 08:17:03;;;;;;;19.08;16.38;;;11.20;99.90;;;;;;5000738;28;20036;-35
2024/03/31 08:19:28;;;;;;;19.33;16.50;;;11.20;99.90;;;;;;5001090;28;20041;-32
2024/03/31 08:21:57;;;;;;;18.15;15.13;;;11.20;99.90;;;;;;5000199;28;20026;-34
2024/03/31 08:24:22;;;;;;;16.38;14.63;;;11.20;99.90;;;;;;5000851;28;20111;-31
2024/03/31 08:26:48;;;;;;;19.77;16.25;;;11.20;99.90;;;;;;5003879;28;20109;-35
2024/03/31 08:29:20;;;;;;;20.17;15.27;;;11.30;99.90;;;;;;5002954;28;20441;-32
2024/03/31 08:31:49;;;;;;;18.37;15.17;;;11.40;99.90;;;;;;5004432;28;20104;-35
2024/03/31 08:34:18;;;;;;;20.13;17.02;;;11.40;99.90;;;;;;5003828;28;20025;-36
2024/03/31 08:36:43;;;;;;;22.15;17.00;;;11.50;99.90;;;;;;5004255;28;20133;-33
2024/03/31 08:39:09;;;;;;;20.88;17.30;;;11.60;99.90;;;;;;5003391;28;20485;-32
2024/03/31 08:41:37;;;;;;;19.85;16.98;;;11.60;99.90;;;;;;5004134;28;20048;-34
2024/03/31 08:44:06;;;;;;;18.67;15.43;;;11.60;99.90;;;;;;5003251;28;20560;-30
2024/03/31 08:46:32;;;;;;;18.05;14.60;;;11.70;99.90;;;;;;5004709;28;20381;-34
2024/03/31 08:48:58;;;;;;;19.50;16.13;;;11.70;99.90;;;;;;5004080;28;20030;-33
2024/03/31 08:51:23;;;;;;;20.92;16.05;;;11.70;99.90;;;;;;5001892;28;20028;-35
2024/03/31 08:53:51;;;;;;;19.45;16.00;;;11.80;99.90;;;;;;5003641;28;20030;-34
2024/03/31 08:56:17;;;;;;;18.33;16.05;;;11.90;99.90;;;;;;5003916;28;20102;-35
2024/03/31 08:58:43;;;;;;;14.15;12.35;;;12.10;99.90;;;;;;5002930;28;20038;-34
2024/03/31 09:01:13;;;;;;;19.67;15.65;;;12.20;99.90;;;;;;5003207;28;20108;-32
2024/03/31 09:03:54;;;;;;;19.20;15.07;;;12.30;99.90;;;;;;5003049;28;20026;-31
2024/03/31 09:06:25;;;;;;;18.63;15.13;;;12.40;99.90;;;;;;4993460;28;20030;-33
2024/03/31 09:08:59;;;;;;;18.83;13.65;;;12.30;99.90;;;;;;5003884;28;20104;-29
2024/03/31 09:11:24;;;;;;;17.73;12.90;;;12.30;99.90;;;;;;4992483;28;20125;-34
2024/03/31 09:13:50;;;;;;;18.17;14.23;;;12.30;99.90;;;;;;5003745;28;20030;-34
2024/03/31 09:16:16;;;;;;;19.15;14.43;;;12.30;99.90;;;;;;5003791;28;20022;-35
2024/03/31 09:18:41;;;;;;;17.10;13.63;;;12.30;99.90;;;;;;5002048;28;20128;-35
2024/03/31 09:21:08;;;;;;;18.10;14.40;;;12.30;99.90;;;;;;5002455;28;20057;-31
2024/03/31 09:23:39;;;;;;;18.25;14.60;;;12.30;99.90;;;;;;5004037;28;20021;-32
2024/03/31 09:26:05;;;;;;;15.75;12.50;;;12.30;99.90;;;;;;5001983;28;20563;-36
2024/03/31 09:28:31;;;;;;;18.35;14.32;;;12.50;99.90;;;;;;5003477;28;20041;-32
2024/03/31 09:31:03;;;;;;;17.40;13.93;;;12.60;99.90;;;;;;5002164;28;20513;-29
2024/03/31 09:33:34;;;;;;;17.75;12.48;;;12.70;99.90;;;;;;4992129;28;20485;-33
2024/03/31 09:36:01;;;;;;;17.63;12.77;;;12.80;99.90;;;;;;5003001;28;20449;-31
2024/03/31 09:38:27;;;;;;;16.92;13.18;;;12.90;99.90;;;;;;5002767;28;20032;-31
2024/03/31 09:40:54;;;;;;;18.85;12.52;;;13.00;99.90;;;;;;5002222;28;20112;-32
2024/03/31 09:43:20;;;;;;;13.40;10.77;;;13.10;99.90;;;;;;5003389;28;20060;-33
2024/03/31 09:45:47;;;;;;;17.48;12.30;;;13.20;99.90;;;;;;5002447;28;20113;-31
2024/03/31 09:48:19;;;;;;;16.45;12.10;;;13.30;99.90;;;;;;5002125;28;20821;-35
2024/03/31 09:51:03;;;;;;;18.13;12.77;;;13.40;99.90;;;;;;5002518;28;20469;-33
2024/03/31 09:53:29;;;;;;;14.88;11.05;;;13.50;99.90;;;;;;5002324;28;20026;-38
2024/03/31 09:56:02;;;;;;;13.02;10.90;;;13.70;99.90;;;;;;5002422;28;20018;-34
2024/03/31 09:58:32;;;;;;;13.63;10.45;;;13.80;99.90;;;;;;5002697;28;20476;-36
2024/03/31 10:01:00;;;;;;;12.95;8.70;;;13.90;99.90;;;;;;5001535;28;20146;-35
2024/03/31 10:03:30;;;;;;;9.55;8.40;;;14.10;99.90;;;;;;5002404;28;20095;-35
2024/03/31 10:05:59;;;;;;;15.40;11.88;;;14.20;99.90;;;;;;5002061;28;20045;-35
2024/03/31 10:08:29;;;;;;;15.55;12.45;;;14.30;99.90;;;;;;5001306;28;20525;-37
2024/03/31 10:10:57;;;;;;;17.50;12.57;;;14.40;99.90;;;;;;5002131;28;20105;-33
2024/03/31 10:13:26;;;;;;;14.90;11.32;;;14.40;99.90;;;;;;5002798;28;20396;-32
2024/03/31 10:15:57;;;;;;;15.15;11.20;;;14.40;99.90;;;;;;5001965;28;20034;-31
2024/03/31 10:18:26;;;;;;;13.43;10.82;;;14.40;99.90;;;;;;5002240;28;20046;-36
2024/03/31 10:20:53;;;;;;;16.45;11.60;;;14.40;99.90;;;;;;5001268;28;20739;-34
2024/03/31 10:23:19;;;;;;;13.82;11.88;;;14.40;99.90;;;;;;5002168;28;20030;-34
2024/03/31 10:25:48;;;;;;;13.02;10.48;;;14.40;99.90;;;;;;5002881;28;20022;-36
2024/03/31 10:28:14;;;;;;;15.68;10.13;;;14.40;99.90;;;;;;5001328;28;20026;-35
2024/03/31 10:30:43;;;;;;;14.95;11.43;;;14.50;99.90;;;;;;5002218;28;20076;-36
2024/03/31 10:33:10;;;;;;;16.65;11.55;;;14.50;99.90;;;;;;5002370;28;20033;-35
2024/03/31 10:35:40;;;;;;;17.95;11.35;;;14.50;99.90;;;;;;5001876;28;20034;-37
2024/03/31 10:38:13;;;;;;;13.27;9.98;;;14.40;99.90;;;;;;5001495;28;20355;-35
2024/03/31 10:40:39;;;;;;;14.52;10.68;;;14.40;99.90;;;;;;5002067;28;20034;-32
2024/03/31 10:43:07;;;;;;;12.75;10.25;;;14.50;99.90;;;;;;5000468;28;20034;-32
2024/03/31 10:45:33;;;;;;;14.23;10.13;;;14.50;99.90;;;;;;5001830;28;20026;-36
2024/03/31 10:48:02;;;;;;;11.18;9.30;;;14.60;99.90;;;;;;5001426;28;20492;-36
2024/03/31 10:50:27;;;;;;;14.05;8.18;;;14.70;99.90;;;;;;5000428;28;20026;-38
2024/03/31 10:52:56;;;;;;;14.00;7.68;;;14.80;99.90;;;;;;5001802;28;20034;-32
2024/03/31 10:55:24;;;;;;;13.80;8.45;;;14.90;99.90;;;;;;5001713;28;20024;-32
2024/03/31 10:58:00;;;;;;;12.00;7.97;;;15.00;99.90;;;;;;5000587;28;20037;-34
2024/03/31 11:00:27;;;;;;;10.52;6.20;;;15.10;99.90;;;;;;5001101;28;20087;-34
2024/03/31 11:02:53;;;;;;;9.30;5.03;;;15.20;99.90;;;;;;5000896;28;20090;-33
2024/03/31 11:05:22;;;;;;;8.68;5.22;;;15.20;99.90;;;;;;5001243;28;20026;-33
2024/03/31 11:07:50;;;;;;;10.20;5.28;;;15.20;99.90;;;;;;5001516;28;20415;-35
2024/03/31 11:20:46;;;;;;;8.43;5.28;;;15.20;99.90;;;;;;5139645;27;20159;-27
2024/03/31 11:23:14;;;;;;;9.35;4.90;;;15.70;99.90;;;;;;5137424;27;20103;-26
2024/03/31 11:25:44;;;;;;;8.93;5.20;;;15.80;99.90;;;;;;5129382;27;20016;-27
2024/03/31 11:28:10;;;;;;;12.48;6.22;;;15.90;99.90;;;;;;5118695;27;20454;-26
2024/03/31 11:30:37;;;;;;;9.50;6.25;;;16.00;99.90;;;;;;5130037;27;20870;-26
2024/03/31 11:33:04;;;;;;;9.95;5.35;;;16.00;99.90;;;;;;5121720;27;20019;-27
2024/03/31 11:35:33;;;;;;;8.75;5.22;;;16.00;99.90;;;;;;5125967;27;20073;-27
2024/03/31 11:38:16;;;;;;;10.68;5.10;;;15.90;99.90;;;;;;5138327;27;20031;-26
2024/03/31 11:40:43;;;;;;;9.23;4.15;;;16.00;99.90;;;;;;5126239;27;20034;-26
2024/03/31 11:43:09;;;;;;;8.90;3.90;;;16.00;99.90;;;;;;5137699;27;20554;-27
2024/03/31 11:45:35;;;;;;;7.40;3.97;;;16.10;99.90;;;;;;5124994;27;20027;-27
2024/03/31 11:48:04;;;;;;;8.02;3.47;;;16.10;99.90;;;;;;5138573;27;20018;-27
2024/03/31 11:50:31;;;;;;;8.65;5.00;;;16.10;99.90;;;;;;5127351;27;20034;-26
2024/03/31 11:52:56;;;;;;;7.75;4.15;;;16.10;99.90;;;;;;5137271;27;20421;-27
2024/03/31 11:55:22;;;;;;;7.57;3.63;;;16.10;99.90;;;;;;5129410;27;20474;-26
2024/03/31 11:57:48;;;;;;;7.28;3.95;;;16.20;99.90;;;;;;5133952;27;20026;-26
2024/03/31 12:00:17;;;;;;;9.30;4.38;;;16.20;99.90;;;;;;5131013;27;20032;-27
2024/03/31 12:02:43;;;;;;;8.52;4.22;;;16.40;99.90;;;;;;5132037;27;20031;-26
2024/03/31 12:05:21;;;;;;;7.50;3.70;;;16.40;99.90;;;;;;5133756;27;20059;-27
2024/03/31 12:07:47;;;;;;;7.47;3.42;;;16.50;99.90;;;;;;5130680;27;20051;-26
2024/03/31 12:10:15;;;;;;;6.65;3.10;;;16.50;99.90;;;;;;5134333;27;20118;-27
2024/03/31 12:12:41;;;;;;;4.72;2.70;;;16.50;99.90;;;;;;5126359;27;20404;-26
2024/03/31 12:15:10;;;;;;;7.75;2.90;;;16.40;99.90;;;;;;5133899;27;20051;-27
2024/03/31 12:17:36;;;;;;;6.28;2.92;;;16.50;99.90;;;;;;5125079;27;20095;-32
2024/03/31 12:20:09;;;;;;;5.60;2.38;;;16.60;99.90;;;;;;5130327;27;20135;-26
2024/03/31 12:22:40;;;;;;;8.32;3.35;;;16.80;99.90;;;;;;5110294;27;20781;-27
2024/03/31 12:25:06;;;;;;;8.98;3.53;;;17.00;99.90;;;;;;5120902;27;20345;-27
2024/03/31 12:27:32;;;;;;;7.88;2.92;;;17.10;99.90;;;;;;5110982;27;20767;-27
2024/03/31 12:30:03;;;;;;;7.40;3.00;;;17.10;99.90;;;;;;5123935;27;20049;-26
2024/03/31 12:32:29;;;;;;;9.90;3.35;;;17.20;99.90;;;;;;5112360;27;20750;-26
2024/03/31 12:34:55;;;;;;;6.15;3.28;;;17.20;99.90;;;;;;5104436;27;20061;-27
2024/03/31 12:37:24;;;;;;;5.65;2.70;;;17.20;99.90;;;;;;5115994;27;20104;-27
2024/03/31 12:39:54;;;;;;;6.82;2.63;;;17.20;99.90;;;;;;5103774;28;20020;-27
2024/03/31 12:42:21;;;;;;;8.60;2.95;;;17.20;99.90;;;;;;5114795;27;20035;-27
2024/03/31 12:44:47;;;;;;;7.43;2.53;;;17.20;99.90;;;;;;5103289;27;20478;-27
2024/03/31 12:47:13;;;;;;;6.75;2.80;;;17.20;99.90;;;;;;5113089;27;20023;-26
2024/03/31 12:49:39;;;;;;;5.45;2.35;;;17.20;99.90;;;;;;5105937;27;20047;-27